Time;durP1;ratioP1;P1;durP2;ratioP2;P2;SDS_P1;SDS_P2;PMS_P1;PMS_P2;Temp;Humidity;BMP_temperature;BMP_pressure;BME280_temperature;BME280_humidity;BME280_pressure;Samples;Min_cycle;Max_cycle;Signal;HPM_P1;HPM_P2
2022/03/26 00:00:34;;;;;;;;;22.00;18.00;;;;;22.92;47.36;102421.09;5019785;28;55089;-65
2022/03/26 00:02:59;;;;;;;;;19.33;18.33;;;;;22.91;47.45;102416.59;5017478;28;45291;-65
2022/03/26 00:05:24;;;;;;;;;19.33;18.67;;;;;22.93;47.21;102424.66;5023380;28;46846;-64
2022/03/26 00:07:50;;;;;;;;;22.00;18.00;;;;;22.91;47.01;102430.06;5022696;28;45513;-65
2022/03/26 00:10:15;;;;;;;;;20.00;17.67;;;;;22.91;47.65;102421.13;5029775;28;45676;-65
2022/03/26 00:12:41;;;;;;;;;20.67;18.33;;;;;22.92;47.17;102417.50;5016902;28;53213;-64
2022/03/26 00:15:08;;;;;;;;;18.67;17.67;;;;;22.89;47.44;102421.09;5022249;28;46576;-65
2022/03/26 00:17:33;;;;;;;;;20.67;17.33;;;;;22.92;47.31;102420.19;5016741;28;45302;-64
2022/03/26 00:19:58;;;;;;;;;19.67;18.00;;;;;22.91;47.67;102422.00;5030789;28;45503;-65
2022/03/26 00:22:24;;;;;;;;;20.67;18.67;;;;;22.92;47.65;102422.88;5028660;28;54998;-65
2022/03/26 00:24:49;;;;;;;;;20.33;19.00;;;;;22.92;47.54;102417.50;5007945;28;47826;-64
2022/03/26 00:27:15;;;;;;;;;21.33;19.33;;;;;22.92;47.42;102423.78;5027652;28;45216;-64
2022/03/26 00:29:40;;;;;;;;;20.67;18.33;;;;;22.92;47.45;102426.47;5017402;28;45297;-65
2022/03/26 00:32:06;;;;;;;;;21.00;19.33;;;;;22.92;47.24;102426.47;5016220;28;54871;-65
2022/03/26 00:34:34;;;;;;;;;17.33;15.00;;;;;22.90;47.45;102420.19;5016707;28;46375;-65
2022/03/26 00:37:00;;;;;;;;;29.00;17.67;;;;;22.91;47.51;102421.13;5031225;28;45393;-65
2022/03/26 00:39:25;;;;;;;;;18.33;16.67;;;;;22.91;47.34;102429.19;5018421;28;54669;-65
2022/03/26 00:41:51;;;;;;;;;23.00;19.67;;;;;22.91;47.52;102423.81;5016705;28;45527;-65
2022/03/26 00:44:17;;;;;;;;;22.67;19.33;;;;;22.90;47.74;102417.50;5022877;28;45950;-64
2022/03/26 00:46:45;;;;;;;;;13.33;11.33;;;;;22.91;47.53;102418.41;5030470;28;45466;-64
2022/03/26 00:49:11;;;;;;;;;17.00;15.00;;;;;22.90;47.38;102414.81;5023607;28;45373;-65
2022/03/26 00:51:36;;;;;;;;;20.33;17.33;;;;;22.90;47.62;102413.91;5019680;28;45569;-64
2022/03/26 00:54:02;;;;;;;;;19.00;18.33;;;;;22.88;47.46;102405.88;5024922;28;45815;-64
2022/03/26 00:56:27;;;;;;;;;22.00;17.00;;;;;22.91;47.85;102407.66;5027419;28;58917;-65
2022/03/26 00:58:53;;;;;;;;;19.67;18.33;;;;;22.90;47.51;102416.59;5016032;28;55769;-65
2022/03/26 01:01:18;;;;;;;;;22.00;18.00;;;;;22.88;47.47;102408.56;5016323;28;45615;-65
2022/03/26 01:03:44;;;;;;;;;19.33;18.33;;;;;22.90;47.59;102414.81;5017986;28;52859;-65
2022/03/26 01:06:09;;;;;;;;;20.33;19.00;;;;;22.90;47.52;102411.22;5021724;28;45313;-64
2022/03/26 01:08:35;;;;;;;;;19.33;18.00;;;;;22.90;47.58;102409.41;5015473;28;55667;-64
2022/03/26 01:11:00;;;;;;;;;22.33;19.00;;;;;22.90;47.51;102412.09;5018571;28;52786;-65
2022/03/26 01:13:26;;;;;;;;;19.67;18.00;;;;;22.90;47.55;102413.91;5031291;28;47176;-65
2022/03/26 01:15:52;;;;;;;;;21.00;19.00;;;;;22.87;47.88;102409.44;5030413;28;45248;-65
2022/03/26 01:18:17;;;;;;;;;17.67;17.33;;;;;22.88;47.67;102416.63;5022777;28;45274;-65
2022/03/26 01:20:43;;;;;;;;;22.67;20.00;;;;;22.84;47.24;102406.78;5001432;28;45278;-64
2022/03/26 01:23:09;;;;;;;;;21.33;16.67;;;;;22.88;47.39;102413.06;5020632;28;62614;-65
2022/03/26 01:25:35;;;;;;;;;21.00;17.33;;;;;22.86;47.42;102398.72;5023287;28;45656;-65
2022/03/26 01:28:01;;;;;;;;;23.33;20.33;;;;;22.87;47.92;102409.44;5024853;28;45407;-65
2022/03/26 01:30:26;;;;;;;;;17.67;16.67;;;;;22.86;47.89;102404.09;5016208;28;45482;-64
2022/03/26 01:32:53;;;;;;;;;21.33;19.67;;;;;22.84;47.90;102404.09;5015786;28;57611;-64
2022/03/26 01:35:18;;;;;;;;;17.67;15.00;;;;;22.85;47.48;102408.59;5030898;28;45336;-65
2022/03/26 01:37:43;;;;;;;;;18.67;17.33;;;;;22.86;47.77;102401.41;5029336;28;45300;-65
2022/03/26 01:40:09;;;;;;;;;21.67;17.33;;;;;22.85;47.80;102402.28;5023770;28;52880;-64
2022/03/26 01:42:34;;;;;;;;;17.67;15.33;;;;;22.84;47.49;102396.00;5020335;28;47775;-64
2022/03/26 01:45:00;;;;;;;;;20.33;15.67;;;;;22.83;47.72;102402.31;5028407;28;60784;-64
2022/03/26 01:47:25;;;;;;;;;20.00;18.00;;;;;22.84;47.47;102396.00;5024747;28;48741;-65
2022/03/26 01:49:51;;;;;;;;;19.00;17.67;;;;;22.81;47.53;102390.69;5024645;28;54963;-64
2022/03/26 01:52:16;;;;;;;;;19.00;17.33;;;;;22.83;47.83;102390.66;5022161;28;46377;-64
2022/03/26 01:54:43;;;;;;;;;16.33;16.00;;;;;22.82;47.72;102389.78;5016062;28;45623;-65
2022/03/26 01:57:10;;;;;;;;;17.67;16.33;;;;;22.79;47.75;102388.91;5025479;28;45385;-64
2022/03/26 01:59:36;;;;;;;;;17.67;17.67;;;;;22.82;47.83;102395.16;5028275;28;45573;-64
2022/03/26 02:02:02;;;;;;;;;20.00;17.67;;;;;22.81;47.70;102382.59;5013705;28;45737;-65
2022/03/26 02:04:27;;;;;;;;;20.33;16.67;;;;;22.81;48.00;102382.59;5023421;28;45490;-65
2022/03/26 02:06:53;;;;;;;;;20.33;17.00;;;;;22.81;47.64;102387.13;5018831;28;57513;-65
2022/03/26 02:09:18;;;;;;;;;17.67;17.00;;;;;22.80;48.00;102380.84;5012935;28;45581;-64
2022/03/26 02:11:45;;;;;;;;;16.67;15.33;;;;;22.77;47.75;102372.78;5022411;28;61700;-64
2022/03/26 02:14:11;;;;;;;;;17.33;17.33;;;;;22.79;47.73;102379.03;5030546;28;45530;-64
2022/03/26 02:16:37;;;;;;;;;17.67;15.67;;;;;22.77;47.95;102382.69;5018978;28;45370;-64
2022/03/26 02:19:04;;;;;;;;;18.67;17.00;;;;;22.80;47.92;102382.59;5033398;28;45588;-64
2022/03/26 02:21:30;;;;;;;;;20.67;16.67;;;;;22.79;48.03;102381.72;5018894;28;46311;-64
2022/03/26 02:23:56;;;;;;;;;20.00;18.00;;;;;22.78;48.11;102387.13;5019032;28;45419;-64
2022/03/26 02:26:25;;;;;;;;;17.67;16.67;;;;;22.74;47.97;102379.13;5021818;28;45358;-65
2022/03/26 02:28:54;;;;;;;;;20.33;16.00;;;;;22.77;48.09;102383.56;5010215;28;46083;-64
2022/03/26 02:31:20;;;;;;;;;17.33;16.33;;;;;22.75;47.74;102371.94;5018290;28;45737;-65
2022/03/26 02:33:45;;;;;;;;;16.67;15.67;;;;;22.76;48.12;102373.72;5021083;28;45186;-65
2022/03/26 02:36:11;;;;;;;;;18.67;15.67;;;;;22.77;48.17;102374.59;5018476;28;45467;-64
2022/03/26 02:38:37;;;;;;;;;21.00;17.67;;;;;22.76;47.82;102371.00;5028518;28;53698;-64
2022/03/26 02:41:03;;;;;;;;;15.33;15.33;;;;;22.76;47.83;102373.72;5030667;28;46419;-65
2022/03/26 02:43:28;;;;;;;;;18.33;14.00;;;;;22.76;47.92;102373.72;5024095;28;45364;-64
2022/03/26 02:45:54;;;;;;;;;23.33;17.67;;;;;22.75;47.67;102366.56;5002443;28;45464;-65
2022/03/26 02:48:19;;;;;;;;;15.67;15.67;;;;;22.74;47.67;102365.66;5001082;28;45529;-65
2022/03/26 02:50:45;;;;;;;;;16.00;14.33;;;;;22.75;48.27;102371.94;5027851;28;61347;-65
2022/03/26 02:53:10;;;;;;;;;20.33;17.00;;;;;22.76;48.20;102368.31;5031637;28;45482;-63
2022/03/26 02:55:36;;;;;;;;;17.67;16.00;;;;;22.73;48.26;102368.34;5018506;28;45393;-64
2022/03/26 02:58:05;;;;;;;;;21.33;17.67;;;;;22.77;48.23;102371.91;5005661;28;45258;-64
2022/03/26 03:00:31;;;;;;;;;17.67;15.67;;;;;22.78;48.05;102371.88;5030842;28;47607;-64
2022/03/26 03:02:57;;;;;;;;;18.00;16.33;;;;;22.79;48.50;102370.94;5021070;28;45388;-65
2022/03/26 03:05:22;;;;;;;;;17.67;16.33;;;;;22.79;48.04;102365.56;5017580;28;45283;-64
2022/03/26 03:07:48;;;;;;;;;22.33;17.33;;;;;22.82;47.93;102365.53;5026566;28;45487;-65
2022/03/26 03:10:15;;;;;;;;;18.33;17.00;;;;;22.81;48.03;102366.44;5022856;28;45765;-64
2022/03/26 03:12:42;;;;;;;;;25.00;20.67;;;;;22.83;48.13;102367.31;5000282;28;45345;-64
2022/03/26 03:15:10;;;;;;;;;19.33;19.00;;;;;22.87;48.36;102365.47;5021195;28;45373;-65
2022/03/26 03:17:37;;;;;;;;;19.33;16.67;;;;;22.87;48.04;102360.97;5026771;28;45210;-63
2022/03/26 03:20:03;;;;;;;;;20.00;16.67;;;;;22.89;47.72;102374.44;5005564;28;46622;-64
2022/03/26 03:22:28;;;;;;;;;19.00;17.67;;;;;22.88;47.97;102364.56;5023066;28;45357;-64
2022/03/26 03:24:53;;;;;;;;;16.67;15.00;;;;;22.89;48.32;102369.94;5032228;28;52594;-65
2022/03/26 03:27:19;;;;;;;;;16.00;16.00;;;;;22.89;47.97;102364.53;5030951;28;45825;-65
2022/03/26 03:29:44;;;;;;;;;20.33;17.33;;;;;22.86;47.98;102359.19;5023347;28;45557;-64
2022/03/26 03:32:10;;;;;;;;;19.00;17.67;;;;;22.89;47.81;102363.66;5017417;28;45472;-65
2022/03/26 03:34:35;;;;;;;;;18.33;18.00;;;;;22.89;48.16;102361.84;5017593;28;45307;-65
2022/03/26 03:37:00;;;;;;;;;19.33;19.33;;;;;22.90;48.08;102371.69;5025270;28;50261;-64
2022/03/26 03:39:26;;;;;;;;;18.33;16.33;;;;;22.91;47.70;102372.63;5024247;28;64494;-64
2022/03/26 03:41:51;;;;;;;;;19.33;17.33;;;;;22.90;47.92;102366.31;5034590;28;45462;-64
2022/03/26 03:44:17;;;;;;;;;22.00;19.33;;;;;22.89;47.73;102364.53;5024011;28;45478;-64
2022/03/26 03:46:42;;;;;;;;;21.33;16.33;;;;;22.89;47.90;102378.00;5017519;28;45360;-65
2022/03/26 03:49:07;;;;;;;;;19.33;18.00;;;;;22.90;47.86;102365.44;5016483;28;58593;-65
2022/03/26 03:51:33;;;;;;;;;18.67;18.33;;;;;22.88;47.76;102368.16;5016688;28;57376;-64
2022/03/26 03:53:58;;;;;;;;;24.33;19.67;;;;;22.89;47.94;102374.44;5016885;28;56386;-64
2022/03/26 03:56:23;;;;;;;;;19.00;18.00;;;;;22.89;47.88;102378.00;5020638;28;45431;-65
2022/03/26 03:58:49;;;;;;;;;19.00;18.33;;;;;22.87;47.71;102381.63;5020709;28;63783;-64
2022/03/26 04:01:14;;;;;;;;;20.67;16.33;;;;;22.88;48.04;102378.03;5027149;28;58352;-64
2022/03/26 04:03:40;;;;;;;;;22.00;18.67;;;;;22.88;47.96;102389.72;5023885;28;45754;-64
2022/03/26 04:06:05;;;;;;;;;17.67;16.33;;;;;22.88;48.01;102384.31;5017000;28;49246;-65
2022/03/26 04:08:31;;;;;;;;;23.00;19.33;;;;;22.85;47.67;102378.97;5016889;28;45700;-63
2022/03/26 04:10:56;;;;;;;;;23.67;20.33;;;;;22.87;48.23;102382.50;5017027;28;45560;-64
2022/03/26 04:13:22;;;;;;;;;21.33;17.33;;;;;22.86;47.99;102383.44;5018618;28;55835;-64
2022/03/26 04:15:47;;;;;;;;;18.67;16.33;;;;;22.85;47.97;102384.34;5019577;28;53408;-64
2022/03/26 04:18:13;;;;;;;;;19.00;18.33;;;;;22.87;47.85;102384.31;5031762;28;53619;-65
2022/03/26 04:20:40;;;;;;;;;20.00;18.67;;;;;22.87;47.62;102385.19;5026607;28;56901;-65
2022/03/26 04:23:05;;;;;;;;;22.67;20.33;;;;;22.86;48.04;102386.13;5017060;28;45304;-65
2022/03/26 04:25:32;;;;;;;;;24.67;18.67;;;;;22.86;48.18;102387.94;5018303;28;45310;-64
2022/03/26 04:27:57;;;;;;;;;20.00;18.67;;;;;22.83;47.98;102385.28;5034840;28;47529;-64
2022/03/26 04:30:22;;;;;;;;;22.00;20.67;;;;;22.85;48.04;102395.13;5025334;28;60655;-64
2022/03/26 04:32:48;;;;;;;;;20.33;18.00;;;;;22.84;48.25;102389.75;5030280;28;55923;-65
2022/03/26 04:35:13;;;;;;;;;22.00;19.00;;;;;22.84;48.00;102387.03;5016574;28;50840;-64
2022/03/26 04:37:39;;;;;;;;;21.67;19.00;;;;;22.83;48.47;102391.53;5015510;28;62092;-65
2022/03/26 04:40:05;;;;;;;;;25.00;21.67;;;;;22.83;48.04;102387.97;5021222;28;45561;-65
2022/03/26 04:42:30;;;;;;;;;19.33;17.33;;;;;22.82;48.26;102391.56;5019725;28;45479;-65
2022/03/26 04:44:56;;;;;;;;;19.33;16.33;;;;;22.82;48.12;102389.78;5008155;28;55806;-65
2022/03/26 04:47:21;;;;;;;;;20.67;19.67;;;;;22.81;48.22;102381.72;5027617;28;60664;-64
2022/03/26 04:49:46;;;;;;;;;19.33;16.33;;;;;22.80;48.03;102386.22;5015363;28;45930;-65
2022/03/26 04:52:12;;;;;;;;;18.67;18.33;;;;;22.80;48.30;102386.22;5022494;28;45571;-64
2022/03/26 04:54:38;;;;;;;;;20.00;18.67;;;;;22.79;48.00;102386.22;5025915;28;52956;-64
2022/03/26 04:57:04;;;;;;;;;19.33;16.33;;;;;22.78;48.32;102388.03;5022027;28;47205;-64
2022/03/26 04:59:29;;;;;;;;;18.33;18.33;;;;;22.78;48.28;102393.41;5028574;28;45373;-65
2022/03/26 05:01:55;;;;;;;;;21.00;16.33;;;;;22.78;48.23;102388.03;5022101;28;45471;-64
2022/03/26 05:04:20;;;;;;;;;21.33;19.33;;;;;22.78;47.95;102388.03;5030633;28;45343;-64
2022/03/26 05:06:45;;;;;;;;;19.67;19.67;;;;;22.77;48.19;102388.06;5032532;28;45451;-64
2022/03/26 05:09:11;;;;;;;;;16.67;14.67;;;;;22.77;48.21;102391.66;5016314;28;45455;-64
2022/03/26 05:11:37;;;;;;;;;17.33;16.33;;;;;22.77;48.36;102394.34;5015853;28;51458;-64
2022/03/26 05:14:02;;;;;;;;;20.00;19.00;;;;;22.75;48.16;102393.47;5016593;28;45441;-65
2022/03/26 05:16:28;;;;;;;;;22.67;18.67;;;;;22.73;47.92;102390.78;5019473;28;45787;-63
2022/03/26 05:18:53;;;;;;;;;18.33;17.33;;;;;22.74;48.20;102397.06;4998165;28;45262;-64
2022/03/26 05:21:19;;;;;;;;;22.33;19.33;;;;;22.73;48.26;102396.16;5017979;28;45278;-64
2022/03/26 05:23:44;;;;;;;;;21.67;20.33;;;;;22.74;48.35;102397.06;5030203;28;50385;-65
2022/03/26 05:26:09;;;;;;;;;20.67;19.33;;;;;22.73;48.24;102393.47;5015626;28;46788;-64
2022/03/26 05:28:35;;;;;;;;;18.67;16.67;;;;;22.74;48.29;102402.44;5018269;28;61056;-64
2022/03/26 05:31:00;;;;;;;;;20.00;18.00;;;;;22.73;48.11;102400.66;5024964;28;55282;-64
2022/03/26 05:33:26;;;;;;;;;22.00;19.33;;;;;22.72;48.17;102410.56;5033954;28;45474;-64
2022/03/26 05:35:52;;;;;;;;;23.67;21.00;;;;;22.71;48.07;102411.47;5028723;28;46683;-64
2022/03/26 05:38:17;;;;;;;;;22.67;20.00;;;;;22.71;48.47;102414.16;5033631;28;45265;-64
2022/03/26 05:40:43;;;;;;;;;19.33;19.00;;;;;22.71;48.68;102414.16;5019022;28;53165;-65
2022/03/26 05:43:08;;;;;;;;;23.33;19.67;;;;;22.69;48.33;102412.38;5018362;28;45479;-65
2022/03/26 05:45:33;;;;;;;;;21.33;19.00;;;;;22.70;48.15;102417.78;5029589;28;47730;-65
2022/03/26 05:48:01;;;;;;;;;21.67;17.00;;;;;22.68;48.34;102414.19;5025003;28;45688;-65
2022/03/26 05:50:27;;;;;;;;;20.00;19.00;;;;;22.68;48.45;102421.38;5029188;28;45525;-65
2022/03/26 05:52:52;;;;;;;;;19.00;19.00;;;;;22.69;48.63;102424.09;5020190;28;45598;-65
2022/03/26 05:55:18;;;;;;;;;22.67;18.67;;;;;22.69;48.37;102420.47;5032073;28;45973;-64
2022/03/26 05:57:43;;;;;;;;;21.33;18.67;;;;;22.63;48.38;102404.41;5037927;28;45468;-65
2022/03/26 06:00:10;;;;;;;;;23.00;19.67;;;;;22.69;48.41;102416.00;5023012;28;54221;-64
2022/03/26 06:02:36;;;;;;;;;20.00;18.67;;;;;22.69;48.31;102420.47;5018862;28;45579;-64
2022/03/26 06:05:02;;;;;;;;;20.33;17.00;;;;;22.68;48.70;102430.34;5020986;28;45802;-64
2022/03/26 06:07:27;;;;;;;;;23.00;16.67;;;;;22.68;48.52;102419.59;5029528;28;45359;-63
2022/03/26 06:09:53;;;;;;;;;24.00;21.00;;;;;22.68;48.44;102424.09;5019378;28;45297;-64
2022/03/26 06:12:18;;;;;;;;;22.67;19.33;;;;;22.65;48.46;102416.06;5018984;28;47578;-64
2022/03/26 06:14:44;;;;;;;;;19.00;18.67;;;;;22.67;48.47;102433.06;5019996;28;57125;-64
2022/03/26 06:17:09;;;;;;;;;21.00;18.00;;;;;22.67;48.12;102438.47;5032225;28;45315;-64
2022/03/26 06:19:35;;;;;;;;;23.33;18.67;;;;;22.64;48.54;102438.53;5032005;28;53976;-64
2022/03/26 06:22:00;;;;;;;;;22.00;22.00;;;;;22.66;48.66;102450.16;5026894;28;51771;-64
2022/03/26 06:24:25;;;;;;;;;19.33;18.00;;;;;22.65;48.50;102446.56;5018544;28;46703;-64
2022/03/26 06:26:51;;;;;;;;;24.67;20.67;;;;;22.66;48.46;102447.47;5017352;28;58405;-64
2022/03/26 06:29:17;;;;;;;;;20.33;18.33;;;;;;;;5143788;22;45507;-65
2022/03/26 06:31:42;;;;;;;;;20.33;20.33;;;;;22.65;48.51;102454.66;5056614;28;54196;-64
2022/03/26 06:34:07;;;;;;;;;24.33;20.00;;;;;;;;5051077;28;47366;-64
2022/03/26 06:36:36;;;;;;;;;22.00;19.67;;;;;22.67;48.43;102457.31;5055560;28;45338;-64
2022/03/26 06:39:02;;;;;;;;;22.00;18.00;;;;;22.66;48.39;102455.53;5053900;28;45476;-65
2022/03/26 06:41:28;;;;;;;;;18.67;18.33;;;;;22.67;48.36;102451.94;5057125;28;45350;-64
2022/03/26 06:43:53;;;;;;;;;19.00;17.67;;;;;22.64;48.18;102460.94;5056493;28;57970;-65
2022/03/26 06:46:18;;;;;;;;;23.33;21.33;;;;;22.68;48.18;102462.66;5039672;28;57408;-63
2022/03/26 06:48:44;;;;;;;;;21.67;20.00;;;;;22.68;48.37;102461.78;5043161;28;47013;-64
2022/03/26 06:51:09;;;;;;;;;20.00;20.00;;;;;22.69;48.58;102466.25;5051822;28;45366;-65
2022/03/26 06:53:35;;;;;;;;;28.00;19.67;;;;;22.69;48.24;102474.31;5057473;28;47067;-64
2022/03/26 06:56:00;;;;;;;;;19.67;19.67;;;;;22.69;48.42;102472.56;5057978;28;53008;-64
2022/03/26 06:58:26;;;;;;;;;23.00;20.00;;;;;22.70;48.15;102476.13;5055876;28;45422;-65
2022/03/26 07:00:52;;;;;;;;;21.67;17.67;;;;;22.67;48.58;102470.78;5054364;28;45346;-65
2022/03/26 07:03:17;;;;;;;;;23.00;20.00;;;;;22.70;48.08;102473.44;5057542;28;46836;-64
2022/03/26 07:05:43;;;;;;;;;20.67;18.00;;;;;22.69;48.02;102477.94;5057578;28;45402;-64
2022/03/26 07:08:09;;;;;;;;;20.00;20.00;;;;;22.70;48.38;102484.22;5057255;28;45520;-64
2022/03/26 07:10:35;;;;;;;;;21.00;19.67;;;;;22.69;48.40;102488.72;5055092;28;45552;-63
2022/03/26 07:13:00;;;;;;;;;25.67;22.33;;;;;22.70;48.21;102492.28;5053077;28;45445;-64
2022/03/26 07:15:26;;;;;;;;;20.33;18.00;;;;;22.71;48.13;102489.56;5051707;28;45394;-63
2022/03/26 07:17:51;;;;;;;;;22.33;20.67;;;;;22.71;48.08;102494.06;5055073;28;53705;-63
2022/03/26 07:20:17;;;;;;;;;17.33;17.33;;;;;22.72;48.67;102498.53;5055639;28;45183;-63
2022/03/26 07:22:42;;;;;;;;;18.67;18.67;;;;;22.73;48.46;102497.63;5053297;28;46307;-63
2022/03/26 07:25:09;;;;;;;;;21.67;18.00;;;;;22.72;48.48;102504.81;5043275;28;45542;-65
2022/03/26 07:27:35;;;;;;;;;20.67;18.33;;;;;22.73;48.40;102503.88;5049990;28;45418;-64
2022/03/26 07:30:00;;;;;;;;;20.00;17.33;;;;;22.73;48.34;102500.31;5051273;28;45581;-64
2022/03/26 07:32:26;;;;;;;;;22.33;18.67;;;;;22.74;48.16;102505.69;5050237;28;45787;-64
2022/03/26 07:34:52;;;;;;;;;23.00;20.67;;;;;22.74;48.69;102507.47;5049983;28;45373;-64
2022/03/26 07:37:17;;;;;;;;;21.67;20.00;;;;;22.74;48.11;102510.16;5050712;28;45417;-65
2022/03/26 07:39:45;;;;;;;;;19.33;18.33;;;;;22.73;48.68;102498.50;5049870;28;54585;-64
2022/03/26 07:42:11;;;;;;;;;25.00;17.33;;;;;22.69;48.98;102499.47;5198553;22;46946;-68
2022/03/26 07:44:36;;;;;;;;;21.33;18.33;;;;;22.70;48.64;102503.94;5071778;28;45899;-67
2022/03/26 07:47:02;;;;;;;;;17.67;15.33;;;;;22.74;48.42;102510.16;5039450;28;56103;-67
2022/03/26 07:49:28;;;;;;;;;14.00;14.00;;;;;22.74;48.06;102512.88;5062152;28;45526;-65
2022/03/26 07:51:53;;;;;;;;;20.67;18.00;;;;;22.72;48.41;102512.88;5073833;28;57762;-64
2022/03/26 07:54:18;;;;;;;;;20.33;17.00;;;;;22.73;48.50;102513.78;5056729;28;55867;-68
2022/03/26 07:56:44;;;;;;;;;20.00;18.67;;;;;22.73;48.46;102513.78;5063956;28;48244;-67
2022/03/26 07:59:09;;;;;;;;;18.00;16.67;;;;;22.74;48.59;102502.09;5051711;28;45831;-67
2022/03/26 08:01:35;;;;;;;;;21.67;18.00;;;;;22.73;48.48;102501.19;5072249;28;46013;-66
2022/03/26 08:04:00;;;;;;;;;18.67;18.67;;;;;22.74;48.40;102505.69;5072345;28;45421;-67
2022/03/26 08:06:26;;;;;;;;;18.33;17.33;;;;;22.77;48.11;102511.94;5068218;28;56898;-63
2022/03/26 08:08:51;;;;;;;;;21.33;18.33;;;;;22.78;48.52;102517.31;5073037;28;45443;-67
2022/03/26 08:11:17;;;;;;;;;23.67;18.00;;;;;22.80;48.17;102517.28;5068182;28;45844;-63
2022/03/26 08:13:42;;;;;;;;;22.33;15.67;;;;;22.80;48.26;102512.81;5045802;28;45487;-67
2022/03/26 08:16:08;;;;;;;;;21.67;17.67;;;;;22.85;48.21;102521.72;5047882;28;45567;-67
2022/03/26 08:18:34;;;;;;;;;23.67;19.00;;;;;22.86;48.48;102526.19;5069025;28;45656;-67
2022/03/26 08:20:59;;;;;;;;;19.33;18.00;;;;;22.86;48.25;102515.41;5070957;28;46579;-64
2022/03/26 08:23:24;;;;;;;;;23.00;17.33;;;;;22.90;48.38;102513.59;5056698;28;45582;-66
2022/03/26 08:28:34;;;;;;;;;41.67;34.67;;;;;22.92;47.61;102522.56;5060884;28;45356;-63
2022/03/26 08:30:59;;;;;;;;;41.33;34.33;;;;;22.67;46.02;102516.56;5075228;28;45488;-67
2022/03/26 08:33:25;;;;;;;;;48.50;36.25;;;;;22.36;45.27;102522.28;5056901;28;45406;-64
2022/03/26 08:35:50;;;;;;;;;48.00;39.50;;;;;22.05;44.83;102518.09;5053731;28;49744;-63
2022/03/26 08:38:16;;;;;;;;;50.75;39.00;;;;;21.72;44.55;102525.56;5070705;28;55855;-65
2022/03/26 08:40:41;;;;;;;;;43.25;36.25;;;;;21.44;43.53;102519.53;5071478;28;45449;-63
2022/03/26 08:43:07;;;;;;;;;51.25;37.75;;;;;21.18;42.96;102531.28;5073844;28;46580;-64
2022/03/26 08:45:33;;;;;;;;;47.25;36.75;;;;;20.95;43.42;102533.22;5070646;27;45402;-63
2022/03/26 08:47:58;;;;;;;;;48.25;36.00;;;;;20.74;42.73;102517.22;5067231;28;48559;-64
2022/03/26 08:50:24;;;;;;;;;35.00;27.25;;;;;20.58;42.88;102529.78;5065041;28;45975;-65
2022/03/26 08:52:49;;;;;;;;;49.75;38.75;;;;;20.44;42.91;102528.91;5073314;28;53145;-65
2022/03/26 08:55:15;;;;;;;;;46.75;35.75;;;;;20.31;43.36;102517.31;5071338;28;45480;-64
2022/03/26 08:57:41;;;;;;;;;45.50;37.25;;;;;20.26;43.44;102527.16;5063703;28;45547;-64
2022/03/26 09:00:07;;;;;;;;;44.25;33.75;;;;;20.19;43.47;102525.38;5063901;28;46531;-63
2022/03/26 09:02:32;;;;;;;;;55.75;42.50;;;;;20.19;43.58;102531.66;5069510;28;45487;-63
2022/03/26 09:04:58;;;;;;;;;46.50;35.50;;;;;20.18;43.67;102521.81;5071999;28;48131;-65
2022/03/26 09:07:23;;;;;;;;;53.25;39.00;;;;;20.17;43.12;102525.38;5065441;28;51002;-67
2022/03/26 09:09:49;;;;;;;;;50.50;37.25;;;;;20.18;43.34;102524.47;5068824;28;48604;-66
2022/03/26 09:12:14;;;;;;;;;41.75;32.25;;;;;20.18;43.39;102532.53;5076145;28;45588;-67
2022/03/26 09:14:39;;;;;;;;;48.50;39.00;;;;;20.19;43.45;102526.28;5078524;28;45973;-67
2022/03/26 09:17:05;;;;;;;;;48.50;37.00;;;;;20.18;42.97;102521.81;5077116;28;51114;-67
2022/03/26 09:19:30;;;;;;;;;52.00;35.25;;;;;20.18;43.03;102526.28;5069587;28;57067;-64
2022/03/26 09:21:56;;;;;;;;;41.50;33.50;;;;;20.15;42.68;102525.41;5061567;28;45591;-69
2022/03/26 09:24:23;;;;;;;;;36.33;33.00;;;;;20.12;42.84;102520.03;5064157;28;47861;-67
2022/03/26 09:26:48;;;;;;;;;43.75;34.25;;;;;20.13;43.78;102516.47;5069590;28;45975;-65
2022/03/26 09:29:13;;;;;;;;;47.75;37.00;;;;;20.18;42.84;102527.16;5072848;28;46112;-67
2022/03/26 09:31:39;;;;;;;;;48.25;35.50;;;;;20.18;43.26;102524.47;5054098;28;54910;-69
2022/03/26 09:34:04;;;;;;;;;46.25;34.50;;;;;20.18;43.47;102519.13;5063013;28;52101;-70
2022/03/26 09:36:30;;;;;;;;;45.75;38.00;;;;;20.19;43.14;102510.19;5072448;28;49957;-69
2022/03/26 09:38:55;;;;;;;;;44.50;36.75;;;;;20.12;42.77;102511.97;5039193;28;55495;-69
2022/03/26 09:41:22;;;;;;;;;42.25;33.50;;;;;20.15;42.94;102517.34;5073000;28;45572;-67
2022/03/26 09:43:48;;;;;;;;;39.25;36.25;;;;;20.15;43.15;102517.34;5047839;28;45542;-67
2022/03/26 09:46:14;;;;;;;;;35.00;31.75;;;;;20.21;43.21;102519.13;5072885;28;45855;-67
2022/03/26 09:48:39;;;;;;;;;40.75;34.25;;;;;20.24;42.81;102523.56;5052873;28;45891;-68
2022/03/26 09:51:05;;;;;;;;;37.75;31.75;;;;;20.26;42.98;102509.28;5072407;28;45485;-66
2022/03/26 09:53:31;;;;;;;;;47.25;32.25;;;;;20.32;43.46;102522.69;5072179;28;45691;-65
2022/03/26 09:55:56;;;;;;;;;43.25;36.00;;;;;20.37;43.77;102515.50;5069137;28;45573;-67
2022/03/26 09:58:22;;;;;;;;;41.75;35.00;;;;;20.42;43.81;102513.72;5071697;28;45704;-67
2022/03/26 10:00:48;;;;;;;;;42.00;36.75;;;;;20.48;43.54;102507.47;5072204;28;45526;-67
2022/03/26 10:03:13;;;;;;;;;48.00;37.25;;;;;20.55;41.77;102505.63;5055655;28;46407;-67
2022/03/26 10:05:39;;;;;;;;;50.00;37.00;;;;;20.54;42.96;102509.22;5073794;28;45549;-67
2022/03/26 10:08:24;;;;;;;;;47.00;37.75;;;;;20.52;43.40;102511.03;5072591;28;59020;-69
2022/03/26 10:14:23;;;;;;;;;41.25;31.75;;;;;20.58;43.62;102497.59;5073335;28;45455;-67
2022/03/26 10:16:51;;;;;;;;;53.50;40.00;;;;;20.59;43.00;102499.38;5071891;28;51071;-67
2022/03/26 10:19:23;;;;;;;;;52.50;40.00;;;;;20.62;43.15;102497.56;5071211;28;58800;-67
2022/03/26 10:21:49;;;;;;;;;44.75;35.50;;;;;20.62;43.08;102504.75;5071914;28;45379;-66
2022/03/26 10:24:14;;;;;;;;;45.00;35.25;;;;;20.65;43.68;102502.91;5046478;28;45830;-67
2022/03/26 10:26:40;;;;;;;;;50.00;36.50;;;;;20.66;43.78;102498.44;5065647;28;50915;-66
2022/03/26 10:29:05;;;;;;;;;36.00;30.50;;;;;20.72;44.20;102506.50;5068669;28;54625;-67
2022/03/26 10:34:16;;;;;;;;;49.50;37.50;;;;;20.79;43.02;102507.34;5068790;28;45647;-67
2022/03/26 10:36:55;;;;;;;;;53.25;39.25;;;;;20.77;43.26;102493.91;5069714;28;45414;-66
2022/03/26 10:39:21;;;;;;;;;52.50;38.75;;;;;20.74;42.58;102496.63;5072664;28;46429;-67
2022/03/26 10:41:47;;;;;;;;;48.00;37.25;;;;;20.76;42.59;102494.81;5068908;28;45847;-66
2022/03/26 10:44:15;;;;;;;;;45.00;37.50;;;;;20.79;42.33;102491.25;5069539;28;45648;-61
2022/03/26 10:46:44;;;;;;;;;43.50;35.50;;;;;20.79;42.20;102489.44;5050790;28;45855;-63
2022/03/26 10:49:09;;;;;;;;;44.75;35.00;;;;;20.79;41.58;102486.75;5066248;28;45780;-62
2022/03/26 10:51:36;;;;;;;;;42.75;34.75;;;;;20.81;42.56;102484.94;5068022;28;45403;-66
2022/03/26 10:54:08;;;;;;;;;52.25;39.75;;;;;20.82;42.01;102480.47;5054068;28;45474;-69
2022/03/26 10:56:33;;;;;;;;;46.50;35.25;;;;;20.83;42.29;102469.75;5072361;28;45627;-68
2022/03/26 10:58:58;;;;;;;;;50.00;38.75;;;;;20.85;41.97;102478.66;5040817;28;58285;-72
2022/03/26 11:01:24;;;;;;;;;49.75;39.25;;;;;20.86;42.35;102469.69;5038919;28;56337;-66
2022/03/26 11:03:49;;;;;;;;;51.50;40.25;;;;;20.86;42.01;102466.13;5075986;28;55775;-66
2022/03/26 11:06:15;;;;;;;;;53.25;37.75;;;;;20.86;41.32;102476.88;5051341;28;55813;-67
2022/03/26 11:08:40;;;;;;;;;48.50;38.75;;;;;20.87;42.15;102474.16;5040030;28;47704;-66
2022/03/26 11:11:07;;;;;;;;;47.00;37.25;;;;;20.86;41.40;102463.44;5049822;28;45519;-66